Time;durP1;ratioP1;P1;durP2;ratioP2;P2;SDS_P1;SDS_P2;PMS_P1;PMS_P2;Temp;Humidity;BMP_temperature;BMP_pressure;BME280_temperature;BME280_humidity;BME280_pressure;Samples;Min_cycle;Max_cycle;Signal;HPM_P1;HPM_P2
2022/05/22 00:00:13;;;;;;;3.45;0.88;;;;;;;14.56;53.84;99054.03;1711553;82;21032;-75
2022/05/22 00:02:42;;;;;;;3.72;0.75;;;;;;;14.55;53.81;99047.89;1711675;82;21085;-76
2022/05/22 00:05:11;;;;;;;5.42;0.90;;;;;;;14.54;53.90;99054.72;1711460;83;21144;-76
2022/05/22 00:07:38;;;;;;;4.30;0.80;;;;;;;14.51;54.11;99049.27;1711555;83;22598;-76
2022/05/22 00:10:08;;;;;;;3.77;0.95;;;;;;;14.46;54.26;99051.62;1711604;82;21002;-75
2022/05/22 00:12:35;;;;;;;5.33;0.93;;;;;;;14.42;54.40;99048.16;1712135;82;21042;-75
2022/05/22 00:15:02;;;;;;;2.75;0.72;;;;;;;14.37;54.43;99053.16;1711657;83;21017;-75
2022/05/22 00:17:28;;;;;;;5.25;0.80;;;;;;;14.33;54.58;99056.69;1710933;82;21007;-75
2022/05/22 00:19:55;;;;;;;5.65;0.90;;;;;;;14.30;54.64;99055.72;1713824;82;21909;-76
2022/05/22 00:22:21;;;;;;;3.02;0.90;;;;;;;14.29;54.65;99048.77;1714967;82;21069;-75
2022/05/22 00:24:48;;;;;;;4.60;0.90;;;;;;;14.28;54.77;99041.77;1710855;83;20962;-75
2022/05/22 00:27:15;;;;;;;5.55;1.00;;;;;;;14.26;54.79;99052.58;1710804;82;20971;-73
2022/05/22 00:29:42;;;;;;;5.75;0.80;;;;;;;14.20;54.69;99042.69;1710313;82;21100;-78
2022/05/22 00:32:09;;;;;;;4.67;0.90;;;;;;;14.18;54.87;99067.23;1711309;82;21935;-78
2022/05/22 00:34:37;;;;;;;3.20;0.65;;;;;;;14.18;55.06;99047.83;1709215;83;20966;-75
2022/05/22 00:37:04;;;;;;;3.27;0.93;;;;;;;14.17;55.11;99051.48;1693804;82;21056;-76
2022/05/22 00:39:33;;;;;;;4.78;0.80;;;;;;;14.13;55.16;99045.72;1711231;82;21030;-75
2022/05/22 00:42:01;;;;;;;4.45;0.90;;;;;;;14.09;55.29;99044.91;1713270;82;21105;-77
2022/05/22 00:44:29;;;;;;;4.33;0.88;;;;;;;14.07;55.16;99038.95;1708700;82;22672;-77
2022/05/22 00:46:56;;;;;;;5.03;0.93;;;;;;;14.06;55.20;99039.45;1710548;82;20968;-76
2022/05/22 00:49:28;;;;;;;6.45;0.78;;;;;;;14.03;55.20;99035.33;1710102;82;21055;-75
2022/05/22 00:52:18;;;;;;;4.15;0.80;;;;;;;14.00;55.09;99034.87;1708094;82;21507;-75
2022/05/22 00:55:00;;;;;;;2.60;0.75;;;;;;;13.98;55.22;99040.33;1699309;82;21445;-75
2022/05/22 00:57:40;;;;;;;4.87;0.80;;;;;;;13.94;55.34;99036.38;1708112;82;21843;-76
2022/05/22 01:00:18;;;;;;;7.45;0.90;;;;;;;13.91;55.36;99034.09;1714105;82;20991;-75
2022/05/22 01:05:33;;;;;;;4.80;1.27;;;;;;;13.84;55.54;99023.84;1701660;82;21116;-76
2022/05/22 01:08:00;;;;;;;4.10;1.00;;;;;;;13.78;55.62;99023.20;1666395;84;21554;-74
2022/05/22 01:10:40;;;;;;;4.97;0.88;;;;;;;13.75;55.73;99020.41;1715885;82;21945;-74
2022/05/22 01:13:08;;;;;;;6.72;0.90;;;;;;;13.71;55.88;99025.75;1703721;83;21247;-74
2022/05/22 01:15:35;;;;;;;4.62;0.80;;;;;;;13.69;56.02;99020.27;1713067;82;20973;-74
2022/05/22 01:18:03;;;;;;;5.05;0.82;;;;;;;13.65;56.12;99017.16;1713084;82;21123;-73
2022/05/22 01:20:30;;;;;;;5.08;0.98;;;;;;;13.61;56.26;99015.86;1714170;82;21185;-73
2022/05/22 01:22:57;;;;;;;6.55;0.80;;;;;;;13.59;56.37;99011.20;1714415;82;21935;-73
2022/05/22 01:25:24;;;;;;;5.12;0.90;;;;;;;13.57;56.49;99014.54;1712910;82;21059;-77
2022/05/22 01:27:53;;;;;;;4.53;0.90;;;;;;;13.55;56.57;99003.78;1703188;82;21451;-75
2022/05/22 01:30:27;;;;;;;2.30;0.90;;;;;;;13.54;56.65;99007.44;1714619;82;20957;-74
2022/05/22 01:32:58;;;;;;;;;;;;;;;13.51;56.80;98995.36;1715094;82;20979;-75
2022/05/22 01:35:26;;;;;;;6.20;1.00;;;;;;;13.48;56.94;98991.70;1711862;82;21946;-75
2022/05/22 01:37:53;;;;;;;5.85;0.90;;;;;;;13.43;57.02;98990.09;1712858;82;21065;-74
2022/05/22 01:40:21;;;;;;;3.83;1.07;;;;;;;13.39;57.10;98993.57;1713726;82;21002;-73
2022/05/22 01:42:50;;;;;;;4.17;0.80;;;;;;;13.36;57.10;98978.02;1711841;82;21109;-77
2022/05/22 01:45:21;;;;;;;1.52;0.60;;;;;;;13.34;56.91;98981.84;1701744;82;21025;-76
2022/05/22 01:47:48;;;;;;;5.00;0.70;;;;;;;13.34;56.76;98977.88;1712614;82;22662;-75
2022/05/22 01:50:15;;;;;;;3.00;0.70;;;;;;;13.33;56.73;98980.20;1713126;82;20969;-75
2022/05/22 01:52:42;;;;;;;6.20;0.98;;;;;;;13.32;56.78;98983.86;1713742;82;21086;-76
2022/05/22 01:55:12;;;;;;;7.53;0.90;;;;;;;13.28;56.75;98975.90;1711645;82;21495;-77
2022/05/22 01:57:41;;;;;;;5.62;0.93;;;;;;;13.25;56.87;98984.20;1673684;85;21101;-76
2022/05/22 02:00:12;;;;;;;2.05;0.80;;;;;;;13.22;56.94;98987.19;1675743;85;21791;-75
2022/05/22 02:02:42;;;;;;;2.77;0.83;;;;;;;13.18;56.91;98976.91;1676477;84;21490;-75
2022/05/22 02:05:11;;;;;;;1.87;0.90;;;;;;;13.18;56.90;98980.05;1684517;84;21054;-76
2022/05/22 02:10:24;;;;;;;2.42;0.80;;;;;;;13.15;56.95;98984.39;1698396;83;21066;-75
2022/05/22 02:12:53;;;;;;;4.40;0.88;;;;;;;13.12;57.08;98975.43;1694048;83;21866;-74
2022/05/22 02:15:21;;;;;;;5.55;1.02;;;;;;;13.09;57.10;98977.94;1713009;82;21514;-73
2022/05/22 02:17:49;;;;;;;4.00;1.00;;;;;;;13.09;57.13;98991.69;1683131;83;20998;-74
2022/05/22 02:20:16;;;;;;;3.55;0.70;;;;;;;13.04;57.23;98986.09;1709924;83;21036;-74
2022/05/22 02:22:51;;;;;;;4.40;0.80;;;;;;;13.04;57.31;98990.06;1695496;83;21028;-74
2022/05/22 02:25:21;;;;;;;3.72;0.80;;;;;;;13.02;57.37;98992.03;1725750;82;21581;-75
2022/05/22 02:27:50;;;;;;;2.40;0.70;;;;;;;13.00;57.42;98987.41;1725148;82;21659;-74
2022/05/22 02:30:20;;;;;;;2.65;0.80;;;;;;;12.98;57.38;98988.91;1714752;83;21022;-75
2022/05/22 02:32:47;;;;;;;6.62;0.60;;;;;;;12.98;57.31;98991.56;1714940;82;20986;-75
2022/05/22 02:35:14;;;;;;;2.62;0.60;;;;;;;12.95;57.18;98993.23;1713934;82;21101;-75
2022/05/22 02:37:46;;;;;;;3.52;0.82;;;;;;;12.92;56.94;98990.08;1714503;83;21935;-74
2022/05/22 02:40:29;;;;;;;2.90;0.62;;;;;;;12.89;56.92;98987.28;1681966;83;20978;-74
2022/05/22 02:42:58;;;;;;;3.85;0.70;;;;;;;12.89;56.90;98989.44;1714931;82;21014;-75
2022/05/22 02:45:30;;;;;;;5.37;0.70;;;;;;;12.88;56.78;98981.16;1690722;83;21034;-75
2022/05/22 02:47:58;;;;;;;3.67;0.90;;;;;;;12.87;56.73;98990.11;1684728;83;21460;-74
2022/05/22 02:50:27;;;;;;;1.50;0.75;;;;;;;12.87;56.65;98990.61;1714483;83;22282;-74
2022/05/22 02:52:55;;;;;;;2.50;0.70;;;;;;;12.84;56.37;98983.01;1710834;82;20957;-73
2022/05/22 02:55:23;;;;;;;1.60;0.60;;;;;;;12.85;56.19;98987.31;1720878;82;21092;-73
2022/05/22 02:57:50;;;;;;;1.02;0.50;;;;;;;12.86;55.92;98984.98;1690940;83;21133;-73
2022/05/22 03:00:22;;;;;;;1.42;0.55;;;;;;;12.87;55.97;98980.01;1687468;83;21580;-74
2022/05/22 03:02:52;;;;;;;;;;;;;;;12.88;55.83;98981.16;1701360;83;21924;-73
2022/05/22 03:05:19;;;;;;;2.75;0.65;;;;;;;12.89;55.60;98975.36;1677791;83;20142;-74
2022/05/22 03:07:47;;;;;;;2.50;0.60;;;;;;;12.92;55.60;98974.19;1694588;83;21067;-77
2022/05/22 03:10:19;;;;;;;3.72;0.70;;;;;;;12.93;55.46;98971.36;1704837;82;21528;-79
2022/05/22 03:12:47;;;;;;;2.58;0.60;;;;;;;12.93;55.40;98975.33;1712976;83;21060;-79
2022/05/22 03:15:15;;;;;;;2.52;0.60;;;;;;;12.96;55.46;98972.86;1722386;82;21890;-77
2022/05/22 03:17:43;;;;;;;4.20;0.57;;;;;;;12.98;55.48;98973.01;1715162;83;21002;-76
2022/05/22 03:20:12;;;;;;;7.47;0.68;;;;;;;13.00;55.59;98957.76;1714637;83;21068;-76
2022/05/22 03:22:40;;;;;;;0.95;0.50;;;;;;;13.00;55.68;98949.80;1711358;83;21093;-77
2022/05/22 03:25:09;;;;;;;2.83;0.57;;;;;;;13.01;55.71;98955.93;1720817;82;21030;-77
2022/05/22 03:27:38;;;;;;;3.58;0.70;;;;;;;13.02;55.70;98960.23;1715024;83;21036;-76
2022/05/22 03:30:07;;;;;;;1.75;0.60;;;;;;;13.03;55.82;98958.76;1714498;83;21018;-77
2022/05/22 03:32:35;;;;;;;2.20;0.57;;;;;;;13.04;55.91;98941.85;1714492;83;21033;-77
2022/05/22 03:35:01;;;;;;;1.55;0.60;;;;;;;13.06;55.79;98943.00;1714379;82;21061;-80
2022/05/22 03:37:28;;;;;;;2.00;0.50;;;;;;;13.08;55.81;98943.65;1692130;83;21014;-80
2022/05/22 03:39:57;;;;;;;3.17;0.70;;;;;;;13.10;55.71;98942.47;1714898;83;21862;-79
2022/05/22 03:42:27;;;;;;;2.40;0.50;;;;;;;13.13;55.53;98941.32;1704505;83;21014;-79
2022/05/22 03:44:55;;;;;;;3.75;0.68;;;;;;;13.15;55.64;98937.49;1714484;82;21053;-78
2022/05/22 03:47:23;;;;;;;2.35;0.60;;;;;;;13.19;55.61;98931.36;1694206;83;21536;-77
2022/05/22 03:49:52;;;;;;;6.72;0.57;;;;;;;13.21;55.61;98933.33;1714094;83;21018;-77
2022/05/22 03:52:19;;;;;;;2.92;0.62;;;;;;;13.24;55.48;98935.66;1713928;82;22428;-75
2022/05/22 03:54:46;;;;;;;5.25;0.60;;;;;;;13.29;55.58;98939.09;1715888;82;20959;-75
2022/05/22 03:57:13;;;;;;;1.17;0.70;;;;;;;13.33;55.51;98931.97;1693724;83;21057;-76
2022/05/22 03:59:41;;;;;;;2.98;0.80;;;;;;;13.37;55.47;98924.47;1717308;83;21091;-75
2022/05/22 04:02:09;;;;;;;2.17;0.70;;;;;;;13.38;55.49;98926.95;1709102;83;21358;-74
2022/05/22 04:04:40;;;;;;;7.20;0.70;;;;;;;13.42;55.53;98918.98;1704056;83;21443;-75
2022/05/22 04:07:23;;;;;;;2.55;1.00;;;;;;;13.45;55.39;98921.78;1693402;83;21074;-73
2022/05/22 04:09:52;;;;;;;2.62;0.72;;;;;;;13.50;55.64;98924.71;1694291;83;21392;-74
2022/05/22 04:12:22;;;;;;;3.08;0.60;;;;;;;13.56;55.64;98924.02;1700301;83;21052;-78
2022/05/22 04:14:54;;;;;;;2.30;0.45;;;;;;;13.61;55.81;98923.50;1699282;83;21052;-75
2022/05/22 04:17:20;;;;;;;2.02;0.60;;;;;;;13.68;55.65;98931.06;1720003;82;21570;-77
2022/05/22 04:19:48;;;;;;;1.00;0.57;;;;;;;13.73;55.65;98924.23;1718316;81;21389;-74
2022/05/22 04:22:14;;;;;;;5.72;0.80;;;;;;;13.77;55.77;98924.70;1700602;83;21025;-74
2022/05/22 04:27:29;;;;;;;3.10;0.70;;;;;;;13.84;55.17;98915.53;1692511;83;21063;-75
2022/05/22 04:29:58;;;;;;;1.47;0.60;;;;;;;13.85;55.33;98911.87;1690374;83;22661;-74
2022/05/22 04:32:26;;;;;;;3.58;0.88;;;;;;;13.89;55.46;98910.50;1692028;83;21030;-73
2022/05/22 04:34:55;;;;;;;3.22;0.80;;;;;;;13.91;55.56;98910.66;1684115;83;21475;-74
2022/05/22 04:37:21;;;;;;;4.55;0.80;;;;;;;13.97;55.68;98913.09;1704950;83;21043;-72
2022/05/22 04:39:50;;;;;;;4.95;1.27;;;;;;;14.01;55.51;98909.09;1699626;82;20974;-73
2022/05/22 04:42:17;;;;;;;2.77;0.93;;;;;;;14.06;55.51;98901.89;1720130;82;22026;-73
2022/05/22 04:44:44;;;;;;;2.25;0.98;;;;;;;14.11;55.70;98900.36;1722548;82;21079;-72
2022/05/22 04:47:16;;;;;;;3.12;0.80;;;;;;;14.14;55.67;98896.02;1720082;82;20974;-73
2022/05/22 04:49:43;;;;;;;2.27;0.90;;;;;;;14.19;55.27;98911.42;1727111;82;22069;-75
2022/05/22 04:52:10;;;;;;;3.12;0.90;;;;;;;14.17;55.09;98890.33;1685094;83;21709;-73
2022/05/22 04:54:38;;;;;;;3.15;1.12;;;;;;;14.17;55.31;98902.78;1684878;83;21952;-74
2022/05/22 04:57:05;;;;;;;2.27;0.90;;;;;;;14.18;55.45;98885.84;1714049;82;21427;-73
2022/05/22 04:59:32;;;;;;;5.15;1.30;;;;;;;14.22;55.26;98899.92;1681391;84;21035;-76
2022/05/22 05:01:59;;;;;;;4.70;1.10;;;;;;;14.25;55.60;98899.55;1668511;84;21059;-73
2022/05/22 05:04:27;;;;;;;2.77;0.90;;;;;;;14.30;55.69;98896.36;1664833;85;21051;-73
2022/05/22 05:06:57;;;;;;;4.15;1.20;;;;;;;14.35;55.42;98886.00;1671852;84;21854;-74
2022/05/22 05:09:36;;;;;;;3.10;0.95;;;;;;;14.40;55.48;98894.77;1638356;84;21074;-71
2022/05/22 05:12:07;;;;;;;3.47;0.80;;;;;;;14.44;55.02;98886.75;1684641;83;21383;-77
2022/05/22 05:14:33;;;;;;;2.05;1.05;;;;;;;14.49;55.60;98885.74;1668360;84;21614;-76
2022/05/22 05:17:00;;;;;;;3.10;1.42;;;;;;;14.56;55.45;98903.91;1661614;84;21150;-74
2022/05/22 05:19:27;;;;;;;7.35;1.32;;;;;;;14.63;54.78;98905.34;1668693;85;21838;-78
2022/05/22 05:21:56;;;;;;;5.15;1.17;;;;;;;14.63;54.20;98909.31;1669095;84;21056;-74
2022/05/22 05:24:23;;;;;;;3.02;1.20;;;;;;;14.63;54.33;98899.52;1668760;84;21067;-75
2022/05/22 05:26:51;;;;;;;3.00;1.10;;;;;;;14.69;54.52;98884.68;1668502;85;21536;-78
2022/05/22 05:29:18;;;;;;;1.98;1.00;;;;;;;14.73;53.98;98897.41;1669455;85;21035;-75
2022/05/22 05:31:45;;;;;;;2.98;1.00;;;;;;;14.75;54.20;98876.77;1676646;85;21971;-77
2022/05/22 05:34:13;;;;;;;3.05;1.15;;;;;;;14.81;54.14;98888.52;1687437;83;21107;-74
2022/05/22 05:36:45;;;;;;;5.03;1.20;;;;;;;14.82;53.89;98877.69;1675681;83;21111;-79
2022/05/22 05:39:14;;;;;;;4.40;1.00;;;;;;;14.84;53.87;98882.30;1654520;84;21542;-78
2022/05/22 05:42:00;;;;;;;3.05;1.10;;;;;;;14.87;54.06;98871.33;1652520;85;21044;-81
2022/05/22 05:44:33;;;;;;;4.60;1.07;;;;;;;14.88;53.61;98875.63;1656736;85;21869;-77
2022/05/22 05:47:02;;;;;;;3.60;1.10;;;;;;;14.91;53.66;98876.26;1665054;84;21047;-76
2022/05/22 05:49:30;;;;;;;4.00;0.98;;;;;;;14.89;53.51;98869.80;1687173;83;21040;-74
2022/05/22 05:51:59;;;;;;;4.92;1.00;;;;;;;14.86;53.46;98880.78;1665476;84;21115;-75
2022/05/22 05:54:25;;;;;;;3.58;0.90;;;;;;;14.86;53.81;98876.80;1629979;84;21024;-76
2022/05/22 05:57:16;;;;;;;1.77;1.00;;;;;;;14.97;53.98;98863.56;1682715;83;21871;-76
2022/05/22 05:59:44;;;;;;;3.83;0.90;;;;;;;15.09;53.65;98863.39;1667256;84;21038;-75
2022/05/22 06:02:15;;;;;;;3.62;1.20;;;;;;;15.14;53.35;98858.31;1689939;83;21127;-74
2022/05/22 06:04:42;;;;;;;1.82;0.90;;;;;;;15.19;53.34;98862.58;1697685;83;21057;-75
2022/05/22 06:07:09;;;;;;;2.37;0.90;;;;;;;15.28;53.31;98861.45;1695321;83;21462;-77
2022/05/22 06:09:37;;;;;;;4.50;0.90;;;;;;;15.32;52.00;98853.39;1697424;83;21020;-74
2022/05/22 06:12:12;;;;;;;4.60;1.00;;;;;;;15.33;52.59;98857.70;1693796;83;21054;-74
2022/05/22 06:14:41;;;;;;;2.80;1.00;;;;;;;15.39;52.00;98869.44;1692448;84;21076;-74
2022/05/22 06:17:09;;;;;;;2.10;1.00;;;;;;;15.37;51.85;98865.64;1682649;83;21062;-77
2022/05/22 06:20:01;;;;;;;3.45;1.10;;;;;;;15.37;51.84;98855.50;1695216;83;21064;-76
2022/05/22 06:22:28;;;;;;;3.02;1.00;;;;;;;15.39;51.84;98848.16;1696267;83;21984;-75
2022/05/22 06:24:56;;;;;;;2.05;0.90;;;;;;;15.45;51.88;98831.44;1695678;83;21012;-71
2022/05/22 06:27:30;;;;;;;3.50;0.78;;;;;;;15.56;51.62;98843.41;1725156;82;21391;-77
2022/05/22 06:30:18;;;;;;;3.58;0.80;;;;;;;15.70;51.67;98836.69;1674612;82;21068;-80
2022/05/22 06:32:50;;;;;;;2.92;0.80;;;;;;;15.81;49.80;98836.67;1702757;82;21299;-79
2022/05/22 06:35:18;;;;;;;2.87;0.70;;;;;;;15.77;49.62;98846.58;1686194;82;21994;-78
2022/05/22 06:37:56;;;;;;;1.87;0.70;;;;;;;15.67;49.61;98828.28;1698690;82;21100;-75
2022/05/22 06:40:24;;;;;;;1.80;0.65;;;;;;;15.64;49.77;98835.33;1654143;82;21071;-77
2022/05/22 06:43:09;;;;;;;4.80;0.68;;;;;;;15.64;49.59;98829.49;1704176;82;21573;-79
2022/05/22 06:45:44;;;;;;;4.15;0.70;;;;;;;15.72;50.10;98841.81;1704239;82;21076;-76
2022/05/22 06:48:31;;;;;;;0.90;0.60;;;;;;;15.90;49.81;98843.50;1702358;82;21902;-79
2022/05/22 06:51:14;;;;;;;2.65;0.80;;;;;;;16.02;49.14;98832.66;1693614;83;21043;-79
2022/05/22 06:54:01;;;;;;;5.15;0.70;;;;;;;16.11;48.63;98843.14;1716795;82;21519;-78
2022/05/22 06:56:45;;;;;;;5.08;0.70;;;;;;;16.08;48.83;98836.88;1682523;83;21075;-74
2022/05/22 06:59:16;;;;;;;1.92;0.57;;;;;;;16.06;48.59;98841.07;1673558;83;21021;-76
2022/05/22 07:01:54;;;;;;;3.12;0.50;;;;;;;15.98;48.58;98838.04;1663494;84;22483;-78
2022/05/22 07:04:21;;;;;;;1.92;0.65;;;;;;;16.00;47.81;98846.66;1689815;83;21089;-79
2022/05/22 07:06:54;;;;;;;1.02;0.62;;;;;;;15.98;47.49;98831.89;1688504;83;21154;-77
2022/05/22 07:09:38;;;;;;;2.47;0.78;;;;;;;15.92;47.98;98830.84;1618188;86;21097;-76
2022/05/22 07:12:11;;;;;;;1.32;0.60;;;;;;;15.88;48.01;98836.22;1671627;84;21562;-76
2022/05/22 07:14:42;;;;;;;2.50;1.50;;;;;;;15.85;48.43;98834.47;1696802;83;22609;-75
2022/05/22 07:17:12;;;;;;;1.35;0.90;;;;;;;15.77;48.61;98839.92;1661272;85;21595;-78
2022/05/22 07:19:44;;;;;;;3.22;0.90;;;;;;;15.66;49.10;98834.63;1697620;83;21486;-73
2022/05/22 07:22:29;;;;;;;2.45;1.20;;;;;;;15.64;49.64;98840.14;1712741;83;21085;-75
2022/05/22 07:25:13;;;;;;;3.80;1.20;;;;;;;15.64;49.74;98836.15;1710590;83;21019;-83
2022/05/22 07:27:47;;;;;;;1.85;0.80;;;;;;;15.70;49.97;98831.88;1666380;83;21869;-77
2022/05/22 07:30:17;;;;;;;1.42;0.82;;;;;;;15.76;49.86;98828.45;1711395;83;21441;-77
2022/05/22 07:32:55;;;;;;;4.08;0.88;;;;;;;15.82;49.96;98826.84;1720772;82;21016;-78
2022/05/22 07:35:25;;;;;;;4.10;1.35;;;;;;;15.98;49.51;98834.05;1727546;82;21065;-76
2022/05/22 07:37:55;;;;;;;1.50;0.90;;;;;;;16.08;48.85;98827.55;1713036;83;21025;-75
2022/05/22 07:40:40;;;;;;;1.57;0.85;;;;;;;16.02;48.94;98825.18;1706958;83;21871;-77
2022/05/22 07:43:08;;;;;;;1.65;0.88;;;;;;;15.93;49.72;98826.34;1686709;83;21068;-76
2022/05/22 07:45:40;;;;;;;3.72;0.80;;;;;;;15.85;49.59;98845.94;1684644;82;21056;-80
2022/05/22 07:48:15;;;;;;;2.40;1.02;;;;;;;15.69;49.63;98835.55;1711458;82;21068;-79
2022/05/22 07:50:47;;;;;;;2.20;0.90;;;;;;;15.48;50.41;98832.38;1712591;82;21071;-76
2022/05/22 07:53:22;;;;;;;1.90;0.90;;;;;;;15.34;51.41;98830.08;1661526;83;21781;-76
2022/05/22 07:56:08;;;;;;;3.08;0.90;;;;;;;15.32;52.00;98824.13;1682847;84;20991;-73
2022/05/22 07:58:50;;;;;;;3.35;0.90;;;;;;;15.38;52.21;98819.39;1682408;83;21059;-74
2022/05/22 08:01:24;;;;;;;3.35;0.90;;;;;;;15.45;52.04;98826.12;1684810;83;21516;-70
2022/05/22 08:04:03;;;;;;;2.37;1.00;;;;;;;15.44;52.54;98831.95;1688995;84;21069;-74
2022/05/22 08:06:47;;;;;;;2.47;0.90;;;;;;;15.25;54.35;98831.25;1709005;82;21845;-75
2022/05/22 08:09:16;;;;;;;5.33;1.30;;;;;;;14.90;56.02;98834.23;1719592;83;21350;-70
2022/05/22 08:11:44;;;;;;;7.50;1.10;;;;;;;14.69;56.90;98831.02;1719685;81;21051;-78
2022/05/22 08:14:15;;;;;;;3.35;0.90;;;;;;;14.51;57.29;98834.06;1720697;82;21084;-79
2022/05/22 08:16:43;;;;;;;2.17;0.90;;;;;;;14.41;58.30;98827.35;1689483;83;21078;-81
2022/05/22 08:19:12;;;;;;;1.70;1.00;;;;;;;14.43;58.48;98831.47;1690211;84;21843;-72
2022/05/22 08:21:40;;;;;;;5.08;0.88;;;;;;;14.51;58.18;98819.95;1692924;83;21317;-75
2022/05/22 08:24:10;;;;;;;2.90;1.30;;;;;;;14.64;57.57;98823.28;1688505;84;21069;-74
2022/05/22 08:26:38;;;;;;;2.27;0.95;;;;;;;14.81;57.24;98820.73;1715541;83;21017;-73
2022/05/22 08:29:04;;;;;;;1.37;0.80;;;;;;;14.93;55.50;98816.56;1718258;82;21098;-75
2022/05/22 08:31:33;;;;;;;1.98;1.12;;;;;;;15.00;55.17;98810.00;1688722;84;21962;-71
2022/05/22 08:34:00;;;;;;;3.17;0.90;;;;;;;15.04;55.10;98812.59;1690286;83;21039;-72
2022/05/22 08:36:26;;;;;;;1.35;0.72;;;;;;;15.15;54.41;98817.41;1683373;85;21049;-75
2022/05/22 08:38:53;;;;;;;1.98;0.90;;;;;;;15.21;54.34;98816.66;1698676;83;21498;-74
2022/05/22 08:41:37;;;;;;;2.85;1.10;;;;;;;15.25;53.81;98821.94;1698866;84;21489;-74
2022/05/22 08:44:15;;;;;;;2.00;0.98;;;;;;;15.26;53.44;98816.94;1698606;84;22668;-70
2022/05/22 08:46:58;;;;;;;2.12;0.90;;;;;;;15.23;53.55;98816.47;1699125;84;21424;-70
2022/05/22 08:50:03;;;;;;;3.33;1.07;;;;;;;15.22;53.25;98815.64;1679783;84;21048;-72
2022/05/22 08:52:57;;;;;;;2.72;0.98;;;;;;;15.16;52.81;98820.41;1680364;83;21452;-70
2022/05/22 08:58:56;;;;;;;3.12;1.37;;;;;;;15.09;53.08;98825.66;1683478;83;21020;-72
2022/05/22 09:00:51;;;;;;;2.83;1.70;;;;;;;14.93;54.18;98827.20;1679740;84;21125;-74
2022/05/22 09:03:28;;;;;;;1.70;1.05;;;;;;;14.82;54.82;98821.87;1678890;85;21469;-70
2022/05/22 09:05:58;;;;;;;1.55;0.90;;;;;;;14.81;55.04;98824.72;1662611;85;21057;-70
2022/05/22 09:08:36;;;;;;;1.67;0.70;;;;;;;14.93;55.31;98807.77;1671081;85;21073;-70
2022/05/22 09:11:25;;;;;;;0.98;0.60;;;;;;;15.09;54.64;98819.52;1659914;85;21187;-69
2022/05/22 09:14:10;;;;;;;2.72;0.90;;;;;;;15.32;54.08;98807.35;1674181;85;21098;-72
2022/05/22 09:16:54;;;;;;;2.90;0.80;;;;;;;15.44;53.48;98805.34;1652841;86;21125;-70
2022/05/22 09:19:38;;;;;;;2.45;1.42;;;;;;;15.46;52.70;98808.62;1673523;85;21061;-71
2022/05/22 09:22:17;;;;;;;1.10;0.75;;;;;;;15.51;53.08;98810.70;1679185;85;21034;-73
2022/05/22 09:25:14;;;;;;;1.70;1.10;;;;;;;15.52;52.26;98803.03;1635243;85;22994;-73
2022/05/22 09:27:50;;;;;;;2.65;0.80;;;;;;;15.52;52.09;98819.50;1680088;84;21074;-71
2022/05/22 09:30:54;;;;;;;2.58;1.00;;;;;;;15.49;51.60;98810.58;1680589;85;21072;-72
2022/05/22 09:34:01;;;;;;;1.77;1.25;;;;;;;15.46;51.67;98806.48;1672267;85;28788;-73
2022/05/22 09:36:50;;;;;;;4.35;1.37;;;;;;;15.40;52.00;98804.06;1596894;88;21589;-71
2022/05/22 09:39:25;;;;;;;1.67;0.95;;;;;;;15.39;52.49;98810.39;1658010;85;21867;-72
2022/05/22 09:42:03;;;;;;;2.58;0.78;;;;;;;15.42;52.45;98806.52;1661419;85;21596;-71
2022/05/22 09:45:06;;;;;;;1.67;0.82;;;;;;;15.42;52.60;98811.84;1664374;83;21002;-71
2022/05/22 09:47:43;;;;;;;3.25;0.80;;;;;;;15.44;52.75;98816.45;1689338;84;21053;-71
2022/05/22 09:50:24;;;;;;;1.80;0.80;;;;;;;15.43;53.11;98818.30;1651791;86;21124;-71
2022/05/22 09:53:00;;;;;;;2.12;0.82;;;;;;;15.33;54.04;98820.45;1670966;85;22616;-71
2022/05/22 09:55:46;;;;;;;2.12;0.80;;;;;;;15.21;55.00;98796.72;1671095;85;21013;-73
2022/05/22 09:58:18;;;;;;;2.02;0.80;;;;;;;15.22;55.60;98791.70;1659544;85;21055;-71
2022/05/22 10:01:12;;;;;;;3.85;1.00;;;;;;;15.40;55.65;98789.42;1700766;83;21092;-72
2022/05/22 10:03:59;;;;;;;1.10;0.80;;;;;;;15.63;55.54;98788.41;1712391;83;21062;-82
2022/05/22 10:06:59;;;;;;;1.15;0.70;;;;;;;15.88;55.04;98788.81;1706006;82;21816;-70
2022/05/22 10:09:40;;;;;;;1.50;0.60;;;;;;;16.13;54.59;98778.02;1663902;84;21067;-72
2022/05/22 10:12:41;;;;;;;3.17;0.60;;;;;;;16.41;53.95;98780.63;1675138;84;21065;-74
2022/05/22 10:15:31;;;;;;;0.88;0.50;;;;;;;16.52;52.45;98792.05;1660266;85;21565;-74
2022/05/22 10:18:12;;;;;;;3.47;0.70;;;;;;;16.46;51.81;98780.84;1687137;83;21037;-75
2022/05/22 10:21:04;;;;;;;2.55;0.78;;;;;;;16.28;52.24;98780.55;1688279;83;21809;-73
2022/05/22 10:23:49;;;;;;;4.00;0.70;;;;;;;16.07;52.34;98792.11;1699117;83;21043;-74
2022/05/22 10:26:52;;;;;;;5.47;2.02;;;;;;;15.87;53.05;98807.13;1685300;83;21107;-76
2022/05/22 10:29:42;;;;;;;2.80;1.30;;;;;;;15.64;53.23;98799.39;1660123;84;21048;-74
2022/05/22 10:32:25;;;;;;;1.70;0.80;;;;;;;15.46;53.61;98797.98;1669252;84;21032;-76
2022/05/22 10:35:02;;;;;;;1.82;0.80;;;;;;;15.31;53.40;98807.03;1667201;84;21973;-72
2022/05/22 10:38:06;;;;;;;3.08;1.60;;;;;;;15.14;53.29;98815.77;1685285;83;20965;-70
2022/05/22 10:43:19;;;;;;;5.60;1.60;;;;;;;14.87;54.33;98816.83;1662223;86;20992;-71
2022/05/22 10:45:46;;;;;;;3.47;1.70;;;;;;;14.81;54.80;98801.62;1676427;83;21012;-75
2022/05/22 10:48:21;;;;;;;3.37;1.20;;;;;;;14.81;54.86;98796.81;1683983;83;22470;-72
2022/05/22 10:51:05;;;;;;;2.20;1.40;;;;;;;14.82;54.67;98800.60;1683888;83;21100;-73
2022/05/22 10:53:38;;;;;;;4.37;1.25;;;;;;;14.82;54.44;98805.92;1657376;86;21084;-75
2022/05/22 10:56:18;;;;;;;5.05;1.20;;;;;;;14.81;54.74;98807.44;1712742;83;21053;-73
2022/05/22 10:59:01;;;;;;;5.25;1.20;;;;;;;14.81;54.85;98808.27;1667052;84;21104;-74
2022/05/22 11:01:34;;;;;;;2.33;1.20;;;;;;;14.83;54.90;98810.22;1693942;83;21844;-73
2022/05/22 11:04:05;;;;;;;;;;;;;;;14.86;55.08;98824.97;1704239;83;21551;-74
2022/05/22 11:06:35;;;;;;;4.55;1.00;;;;;;;14.85;55.01;98825.98;1656233;86;20216;-73
2022/05/22 11:09:03;;;;;;;4.70;0.80;;;;;;;14.79;55.21;98830.23;1680260;85;21520;-73
2022/05/22 11:11:35;;;;;;;1.20;0.90;;;;;;;14.70;55.36;98840.64;1683773;85;21053;-75
2022/05/22 11:14:10;;;;;;;1.35;0.85;;;;;;;14.57;54.92;98865.22;1677771;85;22413;-72
2022/05/22 11:16:37;;;;;;;5.45;1.00;;;;;;;14.49;54.52;98842.73;1690310;83;21069;-73
2022/05/22 11:19:24;;;;;;;1.50;0.40;;;;;;;14.43;54.37;98844.75;1714286;82;21021;-74
2022/05/22 11:22:33;;;;;;;1.30;0.80;;;;;;;14.37;53.59;98861.41;1696339;83;21052;-74
2022/05/22 11:25:27;;;;;;;1.07;0.60;;;;;;;14.27;53.97;98851.05;1695690;83;21457;-76
2022/05/22 11:28:07;;;;;;;;;;;;;;;14.24;54.45;98853.27;1715724;83;22005;-76
2022/05/22 11:30:54;;;;;;;2.58;0.70;;;;;;;14.30;54.62;98844.58;1710656;83;20172;-76
2022/05/22 11:33:46;;;;;;;3.17;0.65;;;;;;;14.48;54.42;98836.27;1683919;85;21046;-76
2022/05/22 11:36:43;;;;;;;2.15;0.60;;;;;;;14.77;54.60;98829.59;1677835;85;21046;-76
2022/05/22 11:39:27;;;;;;;1.45;0.50;;;;;;;15.19;53.81;98826.67;1676681;85;21047;-75
2022/05/22 11:41:58;;;;;;;1.75;0.60;;;;;;;15.65;53.03;98820.48;1696980;84;22380;-75
2022/05/22 11:44:48;;;;;;;1.22;0.50;;;;;;;16.01;52.89;98824.84;1696883;84;21065;-73
2022/05/22 11:47:43;;;;;;;1.15;0.75;;;;;;;16.21;52.65;98828.96;1696521;84;21076;-72
2022/05/22 11:50:58;;;;;;;2.75;0.70;;;;;;;16.19;51.96;98830.49;1696501;83;21356;-72
2022/05/22 11:53:51;;;;;;;0.82;0.60;;;;;;;16.07;53.03;98828.06;1697040;83;21107;-74
2022/05/22 11:56:41;;;;;;;1.35;0.60;;;;;;;15.83;54.02;98832.00;1694388;83;21855;-73
2022/05/22 11:59:57;;;;;;;1.35;0.60;;;;;;;15.66;54.38;98838.61;1697506;83;21060;-73
2022/05/22 12:02:50;;;;;;;1.05;0.50;;;;;;;15.41;55.12;98832.31;1692497;83;21561;-70
2022/05/22 12:05:41;;;;;;;0.70;0.50;;;;;;;15.06;55.79;98843.83;1677000;83;21037;-73
2022/05/22 12:08:38;;;;;;;0.98;0.50;;;;;;;14.89;56.13;98841.89;1698826;83;21108;-73
2022/05/22 12:11:25;;;;;;;1.35;0.50;;;;;;;14.92;56.24;98847.33;1719981;82;21895;-71
2022/05/22 12:14:16;;;;;;;0.90;0.50;;;;;;;15.02;55.42;98842.54;1725202;82;21028;-72
2022/05/22 12:16:46;;;;;;;1.17;0.50;;;;;;;15.16;54.35;98832.38;1685891;83;21060;-72
2022/05/22 12:19:36;;;;;;;0.65;0.30;;;;;;;15.25;53.87;98833.05;1721060;82;21020;-73
2022/05/22 12:25:20;;;;;;;0.88;0.30;;;;;;;15.42;53.33;98838.45;1659869;84;21906;-75